createdAt,value
2022-10-19T04:00:42.905Z,76.51
2022-10-19T04:03:45.505Z,76.51
2022-10-19T04:06:49.973Z,77.80
2022-10-19T04:09:52.277Z,78.12
2022-10-19T04:12:54.309Z,78.25
2022-10-19T04:15:56.637Z,78.93
2022-10-19T04:18:59.334Z,78.89
2022-10-19T04:22:01.675Z,79.01
2022-10-19T04:25:04.440Z,78.19
2022-10-19T04:28:06.783Z,76.98
2022-10-19T04:31:08.876Z,77.34
2022-10-19T04:34:12.115Z,77.46
2022-10-19T04:37:14.154Z,77.56
2022-10-19T04:40:16.531Z,77.47
2022-10-19T04:43:18.566Z,77.73
2022-10-19T04:46:20.966Z,77.98
2022-10-19T04:49:23.003Z,78.17
2022-10-19T04:52:25.285Z,77.56
2022-10-19T04:55:27.450Z,77.20
2022-10-19T04:58:29.759Z,75.99
2022-10-19T05:01:31.931Z,75.85
2022-10-19T05:04:34.210Z,76.44
2022-10-19T05:07:36.599Z,76.33
2022-10-19T05:10:39.932Z,76.03
2022-10-19T05:13:43.284Z,76.12
2022-10-19T05:16:45.672Z,76.50
2022-10-19T05:19:47.797Z,76.80
2022-10-19T05:22:51.018Z,77.28
2022-10-19T05:26:04.342Z,78.07
2022-10-19T05:29:06.756Z,76.86
2022-10-19T05:32:08.839Z,76.60
2022-10-19T05:35:11.195Z,77.15
2022-10-19T05:38:13.259Z,77.25
2022-10-19T05:41:16.220Z,77.59
2022-10-19T05:44:23.182Z,78.09
2022-10-19T05:47:28.654Z,78.60
2022-10-19T05:50:33.081Z,79.35
2022-10-19T05:53:35.667Z,78.83
2022-10-19T05:56:37.913Z,79.85
2022-10-19T05:59:40.250Z,80.09
2022-10-19T06:02:42.845Z,79.99
2022-10-19T06:05:45.989Z,78.80
2022-10-19T06:08:49.000Z,77.04
2022-10-19T06:11:51.314Z,76.53
2022-10-19T06:14:53.387Z,75.68
2022-10-19T06:17:55.713Z,75.13
2022-10-19T06:21:03.990Z,74.77
2022-10-19T06:24:06.581Z,74.44
2022-10-19T06:27:08.684Z,74.56
2022-10-19T06:30:11.524Z,74.74
2022-10-19T06:33:13.558Z,74.14
2022-10-19T06:36:19.393Z,74.17
2022-10-19T06:39:21.435Z,74.11
2022-10-19T06:42:23.745Z,73.41
2022-10-19T06:45:25.874Z,73.47
2022-10-19T06:48:28.165Z,73.67
2022-10-19T06:51:34.594Z,72.99
2022-10-19T06:54:37.446Z,72.70
2022-10-19T06:57:39.657Z,72.80
2022-10-19T07:00:42.226Z,72.62
2022-10-19T07:03:44.462Z,72.65
2022-10-19T07:06:47.330Z,72.28
2022-10-19T07:09:49.466Z,72.34
2022-10-19T07:12:51.844Z,71.83
2022-10-19T07:16:14.536Z,71.24
2022-10-19T07:19:20.198Z,71.47
2022-10-19T07:22:27.245Z,71.72
2022-10-19T07:25:30.803Z,71.61
2022-10-19T07:28:33.017Z,70.10
2022-10-19T07:31:35.597Z,70.32
2022-10-19T07:34:37.619Z,70.37
2022-10-19T07:37:39.905Z,70.55
2022-10-19T07:40:44.884Z,69.51
2022-10-19T07:43:50.481Z,69.70
2022-10-19T07:46:52.505Z,69.17
2022-10-19T07:49:54.817Z,70.01
2022-10-19T07:52:56.897Z,69.51
2022-10-19T07:56:07.522Z,68.88
2022-10-19T07:59:10.262Z,68.76
2022-10-19T08:02:17.376Z,68.70
2022-10-19T08:05:19.810Z,68.49
2022-10-19T08:08:21.876Z,68.64
2022-10-19T08:11:25.557Z,68.59
2022-10-19T08:14:27.793Z,67.35
2022-10-19T08:17:30.812Z,68.18
2022-10-19T08:20:32.858Z,67.76
2022-10-19T08:23:35.179Z,68.68
2022-10-19T08:26:38.851Z,68.72
2022-10-19T08:29:41.198Z,67.26
2022-10-19T08:32:43.294Z,67.70
2022-10-19T08:35:45.600Z,67.51
2022-10-19T08:38:49.470Z,66.95
2022-10-19T08:42:03.619Z,66.69
2022-10-19T08:45:09.091Z,68.11
2022-10-19T08:48:24.720Z,67.14
2022-10-19T08:51:28.426Z,66.33
2022-10-19T08:54:42.116Z,66.42
2022-10-19T08:58:03.986Z,65.24
2022-10-19T09:01:29.434Z,65.77
2022-10-19T09:04:48.233Z,64.81
2022-10-19T09:07:54.078Z,64.88
2022-10-19T09:10:57.427Z,64.58
2022-10-19T09:14:16.176Z,64.83
2022-10-19T09:17:18.253Z,64.94
2022-10-19T09:20:24.817Z,64.16
2022-10-19T09:23:38.176Z,63.76
2022-10-19T09:26:51.722Z,63.26
2022-10-19T09:30:06.122Z,64.25
2022-10-19T09:33:15.957Z,63.92
2022-10-19T09:36:22.767Z,63.74
2022-10-19T09:39:32.111Z,62.72
2022-10-19T09:42:37.094Z,61.60
2022-10-19T09:45:42.764Z,61.99
2022-10-19T09:48:50.005Z,62.58
2022-10-19T09:51:52.824Z,61.51
2022-10-19T09:55:14.515Z,62.04
2022-10-19T09:58:19.414Z,60.98
2022-10-19T10:01:41.421Z,60.03
2022-10-19T10:04:47.424Z,60.57
2022-10-19T10:07:55.060Z,59.92
2022-10-19T10:11:10.655Z,60.92
2022-10-19T10:14:33.938Z,60.56
2022-10-19T10:17:37.251Z,61.18
2022-10-19T10:24:05.532Z,62.02
2022-10-19T10:27:35.033Z,60.00
2022-10-19T10:30:37.784Z,60.76
2022-10-19T10:33:45.143Z,61.04
2022-10-19T10:36:53.964Z,61.14
2022-10-19T10:40:01.878Z,61.32
2022-10-19T10:43:18.922Z,60.35
2022-10-19T10:46:27.741Z,54.43
2022-10-19T10:49:34.730Z,53.77
2022-10-19T10:52:37.533Z,52.83
2022-10-19T10:55:40.135Z,53.12
2022-10-19T10:58:54.530Z,53.58
2022-10-19T11:02:15.164Z,52.94
2022-10-19T11:05:29.437Z,51.92
2022-10-19T11:08:48.564Z,50.34
2022-10-19T11:11:55.887Z,51.42
2022-10-19T11:15:06.713Z,51.30
2022-10-19T11:18:20.027Z,50.49
2022-10-19T11:21:42.473Z,51.11
2022-10-19T11:25:19.891Z,46.49
2022-10-19T11:28:28.832Z,46.77
2022-10-19T11:31:54.009Z,46.55
2022-10-19T11:35:06.983Z,47.23
2022-10-19T11:38:30.830Z,47.35
2022-10-19T11:41:47.737Z,48.45
2022-10-19T11:45:08.538Z,49.40
2022-10-19T11:48:39.346Z,50.35
2022-10-19T11:51:57.619Z,49.86
2022-10-19T11:55:07.767Z,52.80
2022-10-19T11:58:35.391Z,53.08
2022-10-19T12:02:05.219Z,51.28
2022-10-19T12:05:27.840Z,52.50
2022-10-19T12:08:35.516Z,50.48
2022-10-19T12:11:43.806Z,50.39
2022-10-19T12:14:51.211Z,49.33
2022-10-19T12:17:57.096Z,49.46
2022-10-19T12:21:02.847Z,46.94
2022-10-19T12:24:16.460Z,47.72
2022-10-19T12:27:28.057Z,47.82
2022-10-19T12:30:34.432Z,47.03
2022-10-19T12:33:36.287Z,49.31
2022-10-19T12:37:10.863Z,47.65
2022-10-19T12:40:37.921Z,47.98
2022-10-19T12:43:49.345Z,47.27
2022-10-19T12:47:00.778Z,45.27
2022-10-19T12:50:03.909Z,46.55
2022-10-19T12:53:06.004Z,45.35
2022-10-19T12:56:11.758Z,45.32
2022-10-19T12:59:40.168Z,46.58
2022-10-19T13:02:42.784Z,45.26
2022-10-19T13:05:56.385Z,47.00
2022-10-19T13:09:02.852Z,46.18
2022-10-19T13:12:21.450Z,44.21
2022-10-19T13:15:37.755Z,43.23
2022-10-19T13:19:03.866Z,44.18
2022-10-19T13:22:26.215Z,43.91
2022-10-19T13:25:35.092Z,43.01
2022-10-19T13:28:38.581Z,42.46
2022-10-19T13:31:41.401Z,42.65
2022-10-19T13:34:44.126Z,41.92
2022-10-19T13:37:46.189Z,42.92
2022-10-19T13:40:48.381Z,43.23
2022-10-19T13:44:00.675Z,45.34
2022-10-19T13:47:29.357Z,45.42
2022-10-19T13:50:58.187Z,44.45
2022-10-19T13:54:23.684Z,45.51
2022-10-19T13:57:34.794Z,45.32
2022-10-19T14:01:16.002Z,46.13
2022-10-19T14:05:05.183Z,46.00
2022-10-19T14:08:20.906Z,46.77
2022-10-19T14:11:33.782Z,46.71
2022-10-19T14:17:49.144Z,47.11
2022-10-19T14:21:08.980Z,47.83
2022-10-19T14:24:40.624Z,48.27
2022-10-19T14:27:43.366Z,47.84
2022-10-19T14:30:54.862Z,48.28
2022-10-19T14:34:02.054Z,48.39
2022-10-19T14:37:04.391Z,48.31
2022-10-19T14:40:40.960Z,47.51
2022-10-19T14:43:43.377Z,46.71
2022-10-19T14:46:48.466Z,46.48
2022-10-19T14:49:51.177Z,46.58
2022-10-19T14:52:58.577Z,46.40
2022-10-19T14:56:10.216Z,46.17
2022-10-19T14:59:29.854Z,46.68
2022-10-19T15:02:37.931Z,46.95
2022-10-19T15:05:48.248Z,47.13
2022-10-19T15:09:03.835Z,47.49
2022-10-19T15:12:15.498Z,46.91
2022-10-19T15:15:30.581Z,47.52
2022-10-19T15:18:55.094Z,48.01
2022-10-19T15:22:09.476Z,47.89
2022-10-19T15:25:11.407Z,47.50
2022-10-19T15:28:41.645Z,47.31
2022-10-19T15:31:44.094Z,49.79
